Ana Sayfa
METAR-TAF:

METAR-TAF

Havaalanları :

Mankato, Minnesota, Amerika Birleşik Devletleri

Enlem: 44-13N, Boylam: 093-55W, yükseklik: 311 m

Güncel hava durumu gözlemi

Rapor saat 09:56 UTC de 7 dakika önce yapıldı.
Rüzgar kuzey/kuzeybatıdan 7 kt
Sıcaklık 24°C
Nem 94%
Basınç 1006 hPa
Görüş mesafesi: 16.1 km
Açık gökyüzü

METAR: KMKT 250956Z AUTO 34007KT 10SM CLR 24/23 A2971 RMK AO2 SLP053 T02390228

Saat: 05:03 (10:03 UTC)

Tahmin

Rapor saat 05:23 UTC de 4 saat ve 40 dakika önce yapıldı.
Ayın 25'si saat 06 UTC'den ayın 26'si saat 06 UTC'ye kadar geçerli Tahmin
Rüzgar batıdan 8 kt
Görüş mesafesi: 10 km
Açık gökyüzü
Ayın 25'si saat 1300 UTC'den
Rüzgar kuzey/kuzeybatıdan 6 kt
Görüş mesafesi: 10 km
15000 ft yükseklikte parçalı çok bulutlu
Ayın 25'si saat 1800 UTC'den
Rüzgar kuzeybatıdan 9 kt
Görüş mesafesi: 10 km
15000 ft yükseklikte çok bulutlu

TAF: KMKT 250523Z 2506/2606 27008KT P6SM SKC FM251300 33006KT P6SM BKN150 FM251800 31009KT P6SM OVC150

4.000'den fazla havaalanı için hava durumu gözlemleri ve tahminleri (METAR ve TAF raporları).

Kullanılabilir istasyonlar harita üzerinde sarı ve kırmızı noktalarla gösterilir.

İstasyonun adını görmek için fareyi noktanın üzerinde gezdirin.

Sonrasında hava gözlem ve tahminlerini görmek için tıklayın.

Haritayı değiştirmek için: yaklaştırmak için siyah artı işaretli yeşil düğmeye ve uzaklaştırmak için de eksi işaretli düğmeye hızla tıklayın; bitişik haritalar için yeşil okları kullanın.


METAR-TAF: